Time;durP1;ratioP1;P1;durP2;ratioP2;P2;SDS_P1;SDS_P2;PMS_P1;PMS_P2;Temp;Humidity;BMP_temperature;BMP_pressure;BME280_temperature;BME280_humidity;BME280_pressure;Samples;Min_cycle;Max_cycle;Signal;HPM_P1;HPM_P2
2022/04/05 00:02:24;;;;;;;3.53;3.10;;;5.60;99.90;5.60;99015.00;;;;4840631;28;88433;-66
2022/04/05 00:04:50;;;;;;;4.67;3.60;;;5.70;99.90;5.60;99031.00;;;;4854212;28;87846;-65
2022/04/05 00:07:16;;;;;;;2.37;2.17;;;5.90;99.90;5.60;99034.00;;;;4839040;28;105573;-65
2022/04/05 00:09:42;;;;;;;3.83;3.37;;;5.70;99.90;5.60;99025.00;;;;4840130;28;88275;-65
2022/04/05 00:12:08;;;;;;;3.87;3.53;;;5.60;99.90;5.60;99030.00;;;;4840142;28;88399;-66
2022/04/05 00:14:34;;;;;;;4.17;2.53;;;5.70;99.90;5.50;99017.00;;;;4839217;28;93028;-65
2022/04/05 00:16:59;;;;;;;2.90;2.43;;;5.70;99.90;5.50;99034.00;;;;4839382;28;88402;-65
2022/04/05 00:19:25;;;;;;;4.43;2.77;;;5.60;99.90;5.40;99025.00;;;;4839372;28;90097;-65
2022/04/05 00:21:51;;;;;;;4.20;3.37;;;5.50;99.90;5.40;99025.00;;;;4839293;28;88938;-66
2022/04/05 00:24:17;;;;;;;3.83;2.90;;;5.60;99.90;5.30;99024.00;;;;4839708;28;93491;-65
2022/04/05 00:26:43;;;;;;;3.47;3.17;;;5.50;99.90;5.30;99029.00;;;;4839244;28;99646;-65
2022/04/05 00:29:09;;;;;;;3.37;3.03;;;5.50;99.90;5.30;98994.00;;;;4838958;28;116996;-65
2022/04/05 00:31:34;;;;;;;3.27;2.57;;;5.40;99.90;5.30;99028.00;;;;4838744;28;112890;-65
2022/04/05 00:34:00;;;;;;;4.13;3.03;;;5.50;99.90;5.20;99023.00;;;;4838337;28;109185;-66
2022/04/05 00:36:26;;;;;;;4.13;3.67;;;5.40;99.90;5.20;99013.00;;;;4839044;28;108863;-65
2022/04/05 00:38:51;;;;;;;3.57;2.83;;;5.30;99.90;5.20;99014.00;;;;4838810;28;116610;-66
2022/04/05 00:41:17;;;;;;;6.27;3.27;;;5.20;99.90;5.20;99020.00;;;;4838084;28;116586;-67
2022/04/05 00:43:43;;;;;;;4.10;2.57;;;5.30;99.90;5.10;99021.00;;;;4838643;28;110702;-66
2022/04/05 00:46:09;;;;;;;4.03;3.40;;;5.30;99.90;5.10;99013.00;;;;4841570;28;88849;-68
2022/04/05 00:48:57;;;;;;;3.77;3.33;;;5.90;99.90;5.10;99009.00;;;;4838660;28;116528;-66
2022/04/05 00:51:25;;;;;;;3.83;3.33;;;5.30;99.90;5.10;98995.00;;;;4822564;28;87797;-67
2022/04/05 00:53:54;;;;;;;4.73;3.50;;;5.20;99.90;5.10;98997.00;;;;4850661;28;88026;-65
2022/04/05 00:56:21;;;;;;;3.33;2.80;;;5.20;99.90;5.10;98996.00;;;;4821312;28;91870;-65
2022/04/05 00:58:53;;;;;;;6.47;3.40;;;5.20;99.90;5.10;99020.00;;;;4852147;28;88339;-65
2022/04/05 01:01:22;;;;;;;3.77;3.33;;;5.20;99.90;5.10;99021.00;;;;4824302;28;89114;-66
2022/04/05 01:03:53;;;;;;;3.83;2.97;;;5.20;99.90;5.10;99007.00;;;;4842811;28;87127;-66
2022/04/05 01:06:23;;;;;;;6.37;4.10;;;5.20;99.90;5.10;99013.00;;;;4843095;28;88002;-64
2022/04/05 01:08:50;;;;;;;5.10;3.40;;;5.60;99.90;5.00;99024.00;;;;4842093;28;93164;-65
2022/04/05 01:11:16;;;;;;;4.17;2.97;;;5.20;99.90;5.00;99019.00;;;;4841890;28;88814;-65
2022/04/05 01:13:43;;;;;;;6.67;4.77;;;5.20;99.90;5.00;99004.00;;;;4842944;28;87755;-66
2022/04/05 01:16:11;;;;;;;4.47;2.90;;;5.70;99.90;5.00;99008.00;;;;4842382;28;87941;-65
2022/04/05 01:18:37;;;;;;;6.13;3.27;;;5.20;99.90;5.00;99005.00;;;;4841550;28;88174;-64
2022/04/05 01:21:02;;;;;;;5.23;3.47;;;5.10;99.90;5.00;99007.00;;;;4842679;28;94893;-64
2022/04/05 01:23:29;;;;;;;5.53;3.37;;;5.10;99.90;5.00;99016.00;;;;4842233;28;87902;-64
2022/04/05 01:25:56;;;;;;;4.73;3.87;;;5.10;99.90;5.00;99014.00;;;;4825005;28;88028;-65
2022/04/05 01:28:23;;;;;;;5.20;3.53;;;5.70;99.90;5.00;99001.00;;;;4842784;28;88207;-65
2022/04/05 01:30:50;;;;;;;5.37;4.03;;;5.10;99.90;5.00;98994.00;;;;4841715;28;87981;-65
2022/04/05 01:33:17;;;;;;;4.13;3.50;;;5.10;99.90;4.90;98995.00;;;;4842347;28;87792;-65
2022/04/05 01:35:42;;;;;;;5.77;4.23;;;5.10;99.90;4.90;99001.00;;;;4841262;28;98584;-66
2022/04/05 01:38:10;;;;;;;8.37;5.00;;;5.60;99.90;4.90;99006.00;;;;4841771;28;88992;-66
2022/04/05 01:40:36;;;;;;;5.77;3.77;;;5.10;99.90;4.90;99005.00;;;;4824390;28;90239;-64
2022/04/05 01:43:02;;;;;;;4.37;3.93;;;5.10;99.90;4.90;99010.00;;;;4842244;28;87806;-66
2022/04/05 01:45:28;;;;;;;5.97;4.40;;;5.00;99.90;4.80;99006.00;;;;4856385;28;87709;-65
2022/04/05 01:47:54;;;;;;;3.90;3.43;;;4.90;99.90;4.70;99012.00;;;;4840760;28;110147;-65
2022/04/05 01:50:19;;;;;;;6.10;4.73;;;4.90;99.90;4.70;99014.00;;;;4823569;28;115756;-66
2022/04/05 01:52:45;;;;;;;4.60;3.83;;;4.90;99.90;4.60;99016.00;;;;4853528;28;86917;-67
2022/04/05 01:55:11;;;;;;;4.77;4.27;;;4.80;99.90;4.60;98995.00;;;;4841754;28;108341;-66
2022/04/05 01:57:37;;;;;;;5.53;4.80;;;4.70;99.90;4.60;99014.00;;;;4840187;28;110741;-68
2022/04/05 02:00:14;;;;;;;5.83;5.07;;;5.20;99.90;4.50;99006.00;;;;4840863;28;112720;-67
2022/04/05 02:02:41;;;;;;;6.60;5.40;;;4.70;99.90;4.50;98989.00;;;;4842473;28;87725;-67
2022/04/05 02:05:07;;;;;;;7.93;4.77;;;4.70;99.90;4.40;98994.00;;;;4842618;28;87894;-65
2022/04/05 02:07:33;;;;;;;6.97;5.40;;;4.60;99.90;4.40;99009.00;;;;4840198;28;105855;-65
2022/04/05 02:09:59;;;;;;;7.13;5.30;;;4.70;99.90;4.40;99001.00;;;;4840729;28;116266;-67
2022/04/05 02:12:24;;;;;;;8.27;4.77;;;4.60;99.90;4.40;99008.00;;;;4841808;28;87972;-66
2022/04/05 02:14:50;;;;;;;8.13;4.73;;;4.50;99.90;4.40;99004.00;;;;4840396;28;90317;-67
2022/04/05 02:17:16;;;;;;;7.70;4.73;;;4.50;99.90;4.30;98997.00;;;;4841819;28;92365;-65
2022/04/05 02:19:43;;;;;;;6.90;4.23;;;4.60;99.90;4.40;99002.00;;;;4841527;28;87704;-65
2022/04/05 02:22:09;;;;;;;4.83;3.80;;;4.50;99.90;4.30;99014.00;;;;4841502;28;87801;-67
2022/04/05 02:24:35;;;;;;;7.60;4.97;;;4.50;99.90;4.30;99005.00;;;;4840311;28;108407;-67
2022/04/05 02:27:01;;;;;;;6.80;5.10;;;4.50;99.90;4.30;99003.00;;;;4841076;28;90487;-65
2022/04/05 02:29:26;;;;;;;7.00;4.27;;;4.50;99.90;4.30;99004.00;;;;4841526;28;88097;-65
2022/04/05 02:31:52;;;;;;;5.77;4.10;;;5.00;99.90;4.30;98987.00;;;;4841689;28;87872;-64
2022/04/05 02:34:18;;;;;;;10.03;5.17;;;4.50;99.90;4.30;99000.00;;;;4840556;28;109186;-63
2022/04/05 02:36:43;;;;;;;7.07;4.90;;;4.50;99.90;4.40;99002.00;;;;4840259;28;117421;-65
2022/04/05 02:39:11;;;;;;;7.63;5.03;;;4.40;99.90;4.30;98993.00;;;;4840382;28;117397;-66
2022/04/05 02:41:36;;;;;;;9.17;4.67;;;4.50;99.90;4.40;98996.00;;;;4824434;28;87001;-66
2022/04/05 02:44:02;;;;;;;6.53;4.83;;;4.50;99.90;4.30;99007.00;;;;4840613;28;108969;-66
2022/04/05 02:46:28;;;;;;;6.07;4.37;;;4.50;99.90;4.30;99002.00;;;;4841108;28;94469;-65
2022/04/05 02:48:54;;;;;;;5.47;4.67;;;4.50;99.90;4.40;98997.00;;;;4838915;28;116381;-66
2022/04/05 02:51:22;;;;;;;10.47;5.23;;;4.50;99.90;4.30;98996.00;;;;4841745;28;88140;-66
2022/04/05 02:53:47;;;;;;;5.60;4.73;;;4.50;99.90;4.30;98978.00;;;;4852853;28;87774;-65
2022/04/05 02:56:14;;;;;;;5.97;4.40;;;4.40;99.90;4.30;98996.00;;;;4840169;28;94226;-64
2022/04/05 02:58:41;;;;;;;6.37;4.10;;;4.60;99.90;4.30;98996.00;;;;4840568;28;88216;-65
2022/04/05 03:01:07;;;;;;;6.07;3.80;;;4.50;99.90;4.30;99013.00;;;;4843099;28;87846;-65
2022/04/05 03:03:33;;;;;;;4.97;4.03;;;4.50;99.90;4.30;98997.00;;;;4847554;28;87957;-65
2022/04/05 03:06:00;;;;;;;7.17;4.13;;;4.40;99.90;4.30;98995.00;;;;4842265;28;87941;-65
2022/04/05 03:08:25;;;;;;;6.80;3.77;;;4.50;99.90;4.30;98994.00;;;;4840651;28;88138;-65
2022/04/05 03:10:52;;;;;;;5.47;4.57;;;5.10;99.90;4.30;99004.00;;;;4841290;28;87842;-64
2022/04/05 03:13:18;;;;;;;5.23;4.03;;;4.50;99.90;4.30;98996.00;;;;4840098;28;88720;-65
2022/04/05 03:15:44;;;;;;;5.77;3.83;;;4.50;99.90;4.30;99004.00;;;;4822450;28;108045;-65
2022/04/05 03:18:10;;;;;;;7.27;4.70;;;4.50;99.90;4.30;98992.00;;;;4839351;28;117137;-66
2022/04/05 03:20:35;;;;;;;5.27;4.20;;;4.50;99.90;4.30;98993.00;;;;4840889;28;110945;-66
2022/04/05 03:23:01;;;;;;;5.03;4.23;;;4.50;99.90;4.30;98992.00;;;;4840190;28;107744;-66
2022/04/05 03:25:29;;;;;;;4.63;3.70;;;4.80;99.90;4.30;99003.00;;;;4850694;28;88188;-66
2022/04/05 03:27:55;;;;;;;6.00;4.37;;;4.50;99.90;4.30;98997.00;;;;4840512;28;87809;-66
2022/04/05 03:30:23;;;;;;;5.07;3.63;;;4.50;99.90;4.30;98993.00;;;;4841540;28;87481;-65
2022/04/05 03:32:49;;;;;;;5.93;3.43;;;5.00;99.90;4.30;98993.00;;;;4840332;28;87816;-67
2022/04/05 03:35:16;;;;;;;4.13;3.27;;;4.50;99.90;4.30;98997.00;;;;4839664;28;89255;-65
2022/04/05 03:37:42;;;;;;;5.43;3.87;;;4.50;99.90;4.40;98994.00;;;;4839384;28;88679;-66
2022/04/05 03:40:10;;;;;;;6.90;3.77;;;4.50;99.90;4.30;98982.00;;;;4838607;28;110465;-67
2022/04/05 03:42:35;;;;;;;5.00;3.67;;;4.50;99.90;4.40;98981.00;;;;4840672;28;87855;-66
2022/04/05 03:45:01;;;;;;;5.17;3.40;;;4.90;99.90;4.40;99004.00;;;;4838784;28;117572;-67
2022/04/05 03:47:28;;;;;;;7.40;3.87;;;4.50;99.90;4.40;98977.00;;;;4839525;28;104136;-66
2022/04/05 03:49:54;;;;;;;6.93;3.53;;;4.50;99.90;4.40;98999.00;;;;4840277;28;87576;-66
2022/04/05 03:52:20;;;;;;;6.47;4.43;;;4.70;99.90;4.40;98997.00;;;;4847183;28;107302;-67
2022/04/05 03:54:46;;;;;;;4.77;3.37;;;5.30;99.90;4.40;98987.00;;;;4824484;28;115844;-67
2022/04/05 03:57:12;;;;;;;4.60;4.07;;;4.90;99.90;4.40;98992.00;;;;4839243;28;99642;-67
2022/04/05 03:59:38;;;;;;;3.57;3.07;;;4.50;99.90;4.40;98989.00;;;;4821908;28;109698;-66
2022/04/05 04:02:04;;;;;;;4.53;3.53;;;5.00;99.90;4.40;98992.00;;;;4838011;28;109874;-65
2022/04/05 04:04:31;;;;;;;5.63;4.30;;;4.60;99.90;4.40;98994.00;;;;4839767;28;88001;-65
2022/04/05 04:06:56;;;;;;;4.83;3.60;;;4.50;99.90;4.50;99002.00;;;;4839114;28;107927;-65
2022/04/05 04:09:22;;;;;;;3.37;3.07;;;4.60;99.90;4.50;99009.00;;;;4839697;28;102504;-66
2022/04/05 04:11:48;;;;;;;4.17;2.73;;;4.70;99.90;4.60;99002.00;;;;4839580;28;100341;-64
2022/04/05 04:14:14;;;;;;;5.83;3.43;;;4.70;99.90;4.60;98999.00;;;;4839797;28;88053;-66
2022/04/05 04:16:40;;;;;;;3.97;2.77;;;4.70;99.90;4.60;98998.00;;;;4838581;28;117262;-67
2022/04/05 04:19:05;;;;;;;2.93;2.57;;;4.70;99.90;4.60;99004.00;;;;4839076;28;108183;-65
2022/04/05 04:21:31;;;;;;;3.47;2.23;;;4.70;99.90;4.60;99011.00;;;;4839114;28;109815;-64
2022/04/05 04:23:57;;;;;;;4.13;3.40;;;4.70;99.90;4.60;98999.00;;;;4838417;28;117793;-64
2022/04/05 04:26:23;;;;;;;3.00;2.40;;;4.70;99.90;4.60;99000.00;;;;4834076;28;117272;-65
2022/04/05 04:28:55;;;;;;;5.53;3.00;;;4.70;99.90;4.60;99006.00;;;;4837000;28;87672;-64
2022/04/05 04:31:21;;;;;;;3.53;2.73;;;4.80;99.90;4.60;99013.00;;;;4835187;28;87852;-66
2022/04/05 04:33:47;;;;;;;3.20;2.67;;;5.40;99.90;4.60;99017.00;;;;4837955;28;119184;-64
2022/04/05 04:36:13;;;;;;;4.60;3.03;;;4.80;99.90;4.70;99020.00;;;;4820388;28;116314;-65
2022/04/05 04:38:38;;;;;;;2.73;2.23;;;4.80;99.90;4.70;99023.00;;;;4838799;28;110817;-66
2022/04/05 04:41:04;;;;;;;3.67;3.23;;;4.80;99.90;4.70;99015.00;;;;4838330;28;108899;-66
2022/04/05 04:43:30;;;;;;;2.30;2.10;;;4.80;99.90;4.70;99031.00;;;;4839231;28;117167;-65
2022/04/05 04:45:56;;;;;;;3.37;2.83;;;4.90;99.90;4.70;99034.00;;;;4838802;28;115899;-65
2022/04/05 04:48:22;;;;;;;3.63;2.87;;;5.30;99.90;4.70;99031.00;;;;4838845;28;108483;-64
2022/04/05 04:50:49;;;;;;;5.57;2.73;;;4.80;99.90;4.70;99023.00;;;;4839640;28;88737;-64
2022/04/05 04:53:15;;;;;;;3.77;2.63;;;4.80;99.90;4.70;99016.00;;;;4850647;28;104273;-65
2022/04/05 04:55:41;;;;;;;5.73;3.50;;;4.80;99.90;4.70;99028.00;;;;4838145;28;117849;-64
2022/04/05 04:58:07;;;;;;;2.77;2.57;;;4.80;99.90;4.70;99033.00;;;;4839178;28;110230;-66
2022/04/05 05:00:33;;;;;;;3.30;2.80;;;4.90;99.90;4.80;99029.00;;;;4838928;28;99853;-65
2022/04/05 05:02:58;;;;;;;3.27;2.50;;;4.90;99.90;4.70;99036.00;;;;4838967;28;88369;-64
2022/04/05 05:05:24;;;;;;;3.33;3.03;;;4.90;99.90;4.80;99029.00;;;;4838524;28;117627;-64
2022/04/05 05:07:51;;;;;;;2.93;2.57;;;4.90;99.90;4.80;99041.00;;;;4839220;28;90741;-64
2022/04/05 05:10:20;;;;;;;3.00;2.40;;;4.90;99.90;4.80;99028.00;;;;4838667;28;99622;-63
2022/04/05 05:12:46;;;;;;;5.07;3.20;;;5.00;99.90;4.80;99033.00;;;;4839113;28;88439;-64
2022/04/05 05:15:16;;;;;;;4.33;2.70;;;4.90;99.90;4.80;99035.00;;;;4838180;28;108996;-65
2022/04/05 05:17:44;;;;;;;3.37;2.70;;;4.90;99.90;4.80;99044.00;;;;4838733;28;87878;-65
2022/04/05 05:20:11;;;;;;;3.77;2.73;;;5.10;99.90;4.80;99052.00;;;;4853129;28;87732;-64
2022/04/05 05:22:37;;;;;;;3.43;3.13;;;5.00;99.90;4.90;99066.00;;;;4838633;28;102111;-64
2022/04/05 05:25:03;;;;;;;5.10;3.97;;;5.00;99.90;4.90;99056.00;;;;4839344;28;89050;-64
2022/04/05 05:27:29;;;;;;;3.93;2.97;;;5.00;99.90;4.90;99048.00;;;;4838201;28;99189;-64
2022/04/05 05:29:55;;;;;;;4.57;2.97;;;5.00;99.90;4.90;99054.00;;;;4838281;28;108067;-65
2022/04/05 05:32:21;;;;;;;4.23;3.57;;;5.60;99.90;4.90;99055.00;;;;4838136;28;118082;-64
2022/04/05 05:34:46;;;;;;;4.37;3.17;;;5.20;99.90;4.90;99072.00;;;;4838350;28;108248;-64
2022/04/05 05:37:12;;;;;;;3.77;3.07;;;5.60;99.90;4.90;99058.00;;;;4838287;28;99935;-65
2022/04/05 05:39:39;;;;;;;4.00;3.57;;;5.00;99.90;4.90;99073.00;;;;4838537;28;89057;-66
2022/04/05 05:42:06;;;;;;;6.00;4.70;;;5.00;99.90;5.00;99084.00;;;;4839282;28;87862;-66
2022/04/05 05:44:33;;;;;;;3.37;3.07;;;5.00;99.90;5.00;99066.00;;;;4820564;28;96752;-66
2022/04/05 05:47:00;;;;;;;4.17;2.93;;;5.10;99.90;5.00;99076.00;;;;4855009;28;87875;-66
2022/04/05 05:49:26;;;;;;;4.63;3.60;;;5.10;99.90;5.00;99085.00;;;;4841944;28;87851;-66
2022/04/05 05:51:51;;;;;;;4.07;3.40;;;5.10;99.90;5.00;99092.00;;;;4844656;28;118316;-65
2022/04/05 05:54:18;;;;;;;4.67;3.80;;;5.10;99.90;5.00;99085.00;;;;4841433;28;117736;-66
2022/04/05 05:56:43;;;;;;;3.60;3.30;;;5.40;99.90;5.10;99088.00;;;;4841167;28;110776;-66
2022/04/05 05:59:10;;;;;;;3.87;2.73;;;5.60;99.90;5.10;99099.00;;;;4840852;28;107743;-65
2022/04/05 06:01:36;;;;;;;4.83;3.93;;;5.90;99.90;5.10;99102.00;;;;4841511;28;92219;-65
2022/04/05 06:04:02;;;;;;;4.37;3.80;;;5.90;99.90;5.10;99108.00;;;;4840621;28;96111;-65
2022/04/05 06:06:31;;;;;;;4.30;3.67;;;5.30;99.90;5.20;99116.00;;;;4842525;28;87588;-65
2022/04/05 06:08:57;;;;;;;4.20;3.00;;;5.20;99.90;5.20;99116.00;;;;4841871;28;87857;-66
2022/04/05 06:11:23;;;;;;;3.93;3.00;;;5.30;99.90;5.20;99105.00;;;;4841595;28;105189;-64
2022/04/05 06:13:50;;;;;;;4.80;3.27;;;5.40;99.90;5.20;99114.00;;;;4840901;28;109260;-64
2022/04/05 06:16:16;;;;;;;4.70;3.97;;;5.40;99.90;5.30;99135.00;;;;4841248;28;100278;-65
2022/04/05 06:18:42;;;;;;;5.40;4.20;;;5.40;99.90;5.30;99135.00;;;;4840674;28;89149;-64
2022/04/05 06:21:08;;;;;;;4.77;3.87;;;5.40;99.90;5.30;99131.00;;;;4841664;28;88232;-66
2022/04/05 06:23:34;;;;;;;5.10;3.93;;;5.40;99.90;5.30;99140.00;;;;4855224;28;98380;-65
2022/04/05 06:26:00;;;;;;;4.57;4.10;;;5.40;99.90;5.30;99137.00;;;;4854308;28;111357;-64
2022/04/05 06:28:26;;;;;;;5.03;4.27;;;5.50;99.90;5.40;99136.00;;;;4840831;28;88683;-65
2022/04/05 06:30:52;;;;;;;6.57;3.97;;;5.50;99.90;5.40;99144.00;;;;4840125;28;118699;-65
2022/04/05 06:33:22;;;;;;;3.63;3.30;;;5.60;99.90;5.40;99147.00;;;;4840440;28;117823;-64
2022/04/05 06:35:51;;;;;;;4.93;4.47;;;5.50;99.90;5.50;99127.00;;;;4841598;28;87586;-64
2022/04/05 06:38:17;;;;;;;4.83;4.43;;;5.80;99.90;5.50;99134.00;;;;4841772;28;88073;-65
2022/04/05 06:40:44;;;;;;;5.63;4.00;;;6.00;99.90;5.60;99149.00;;;;4840314;28;88530;-65
2022/04/05 06:43:12;;;;;;;6.20;4.47;;;5.50;99.90;5.60;99152.00;;;;4840425;28;89144;-64
2022/04/05 06:45:38;;;;;;;5.63;4.57;;;5.70;99.90;5.60;99176.00;;;;4845390;28;87065;-66
2022/04/05 06:48:06;;;;;;;7.40;4.90;;;5.70;99.90;5.60;99190.00;;;;4840932;28;87751;-64
2022/04/05 06:50:41;;;;;;;2.73;2.00;;;5.70;99.90;5.60;99200.00;;;;4841719;28;88955;-64
2022/04/05 06:53:09;;;;;;;1.90;1.17;;;5.70;99.90;5.40;99207.00;;;;4853094;28;89267;-64
2022/04/05 06:55:35;;;;;;;0.67;0.60;;;5.60;99.90;5.30;99210.00;;;;4840891;28;88119;-65
2022/04/05 06:58:01;;;;;;;2.77;0.60;;;5.50;99.90;5.10;99218.00;;;;4840023;28;87925;-64
2022/04/05 07:00:27;;;;;;;0.43;0.43;;;5.40;99.90;5.00;99211.00;;;;4840221;28;119445;-63
2022/04/05 07:02:54;;;;;;;0.50;0.50;;;5.20;99.90;5.00;99231.00;;;;4840583;28;87968;-63
2022/04/05 07:05:20;;;;;;;1.47;0.70;;;5.10;99.90;4.90;99226.00;;;;4840969;28;87779;-64
2022/04/05 07:07:46;;;;;;;0.97;0.30;;;5.10;99.90;4.80;99227.00;;;;4840750;28;87791;-63
2022/04/05 07:10:17;;;;;;;1.10;0.53;;;5.00;99.90;4.80;99221.00;;;;4841055;28;87237;-64
2022/04/05 07:12:44;;;;;;;1.00;0.50;;;4.90;99.90;4.70;99232.00;;;;4841188;28;87811;-63
2022/04/05 07:15:10;;;;;;;0.77;0.50;;;4.90;99.90;4.70;99227.00;;;;4840561;28;88318;-65
2022/04/05 07:17:37;;;;;;;0.30;0.27;;;4.80;99.90;4.70;99237.00;;;;4840964;28;88911;-64
2022/04/05 07:20:07;;;;;;;2.67;0.80;;;4.80;99.90;4.70;99225.00;;;;4841120;28;88020;-64
2022/04/05 07:22:33;;;;;;;1.13;0.80;;;4.90;99.90;4.70;99233.00;;;;4840401;28;88829;-63
2022/04/05 07:24:58;;;;;;;0.97;0.60;;;4.80;99.90;4.70;99233.00;;;;4840595;28;104710;-64
2022/04/05 07:27:24;;;;;;;0.30;0.30;;;4.90;99.90;4.70;99226.00;;;;4839903;28;107291;-64
2022/04/05 07:29:50;;;;;;;1.00;0.73;;;4.90;99.90;4.80;99232.00;;;;4839600;28;117672;-65
2022/04/05 07:32:15;;;;;;;2.50;0.40;;;5.30;99.90;4.80;99243.00;;;;4841133;28;87866;-64
2022/04/05 07:34:41;;;;;;;0.67;0.40;;;5.10;99.90;4.80;99243.00;;;;4840002;28;108992;-63
2022/04/05 07:37:09;;;;;;;0.40;0.40;;;4.90;99.90;4.80;99248.00;;;;4840288;28;109907;-65
2022/04/05 07:39:36;;;;;;;0.87;0.60;;;5.00;99.90;4.80;99248.00;;;;4839738;28;88378;-65
2022/04/05 07:42:02;;;;;;;0.37;0.27;;;4.90;99.90;4.90;99239.00;;;;4839383;28;88780;-65
2022/04/05 07:44:28;;;;;;;2.77;1.00;;;5.00;99.90;4.90;99228.00;;;;4840424;28;87593;-64
2022/04/05 07:46:54;;;;;;;0.40;0.40;;;5.50;99.90;5.00;99243.00;;;;4839401;28;107933;-64
2022/04/05 07:49:19;;;;;;;2.77;0.30;;;5.10;99.90;5.00;99238.00;;;;4839848;28;87632;-63
2022/04/05 07:51:45;;;;;;;3.30;0.50;;;5.00;99.90;5.10;99237.00;;;;4843374;28;87866;-64
2022/04/05 07:54:11;;;;;;;0.40;0.37;;;5.10;99.90;5.10;99233.00;;;;4848186;28;95914;-65
2022/04/05 07:56:37;;;;;;;2.17;0.70;;;5.20;99.90;5.20;99239.00;;;;4840433;28;87950;-65
2022/04/05 07:59:02;;;;;;;0.40;0.40;;;5.20;99.90;5.20;99253.00;;;;4840291;28;87340;-64
2022/04/05 08:01:29;;;;;;;1.00;0.60;;;5.30;99.90;5.20;99255.00;;;;4839442;28;117046;-65
2022/04/05 08:03:56;;;;;;;1.60;0.53;;;5.30;99.90;5.30;99256.00;;;;4839903;28;87784;-63
2022/04/05 08:06:23;;;;;;;1.07;0.67;;;5.40;99.90;5.30;99262.00;;;;4840220;28;88790;-64
2022/04/05 08:08:50;;;;;;;0.87;0.63;;;5.40;99.90;5.30;99252.00;;;;4839417;28;88781;-64
2022/04/05 08:11:16;;;;;;;1.40;0.73;;;5.50;99.90;5.30;99258.00;;;;4839519;28;88150;-64
2022/04/05 08:13:42;;;;;;;0.83;0.37;;;5.90;99.90;5.30;99258.00;;;;4840102;28;87813;-64
2022/04/05 08:16:08;;;;;;;1.03;0.93;;;5.40;99.90;5.30;99256.00;;;;4839644;28;108810;-64
2022/04/05 08:18:34;;;;;;;1.07;0.47;;;5.40;99.90;5.30;99263.00;;;;4838581;28;118336;-64
2022/04/05 08:21:00;;;;;;;0.73;0.37;;;5.60;99.90;5.40;99257.00;;;;4838927;28;116954;-65
2022/04/05 08:23:26;;;;;;;3.93;0.93;;;5.50;99.90;5.40;99257.00;;;;4839811;28;109308;-63
2022/04/05 08:25:52;;;;;;;0.70;0.60;;;5.50;99.90;5.40;99259.00;;;;4840453;28;87709;-63
2022/04/05 08:28:19;;;;;;;0.70;0.57;;;5.60;99.90;5.50;99271.00;;;;4839575;28;89064;-63
2022/04/05 08:30:45;;;;;;;4.80;1.30;;;5.60;99.90;5.50;99268.00;;;;4839381;28;88552;-65
2022/04/05 08:33:10;;;;;;;1.30;0.87;;;5.60;99.90;5.50;99268.00;;;;4839065;28;93985;-65
2022/04/05 08:35:37;;;;;;;3.87;1.30;;;5.60;99.90;5.60;99277.00;;;;4839046;28;109413;-63
2022/04/05 08:38:03;;;;;;;1.33;0.90;;;5.60;99.90;5.60;99276.00;;;;4839235;28;89257;-64
2022/04/05 08:40:28;;;;;;;1.53;1.03;;;6.10;99.90;5.70;99285.00;;;;4839394;28;88892;-63
2022/04/05 08:42:56;;;;;;;0.80;0.80;;;5.80;99.90;5.80;99292.00;;;;4838941;28;99165;-64
2022/04/05 08:45:24;;;;;;;8.77;1.67;;;5.80;99.90;5.90;99294.00;;;;4840385;28;87771;-66
2022/04/05 08:47:56;;;;;;;6.47;1.03;;;6.00;99.90;6.00;99298.00;;;;4839270;28;87081;-64
2022/04/05 08:50:26;;;;;;;2.37;1.00;;;6.00;99.90;6.10;99294.00;;;;4840083;28;87714;-64
2022/04/05 08:52:54;;;;;;;0.93;0.50;;;6.70;99.90;6.30;99304.00;;;;4851180;28;87736;-63
2022/04/05 08:55:20;;;;;;;1.10;0.80;;;6.30;99.90;6.50;99307.00;;;;4839794;28;89051;-64
2022/04/05 08:57:46;;;;;;;4.23;0.77;;;6.60;99.90;6.60;99307.00;;;;4838336;28;117237;-63
2022/04/05 09:00:14;;;;;;;1.33;0.70;;;7.00;99.90;6.80;99311.00;;;;4839774;28;88817;-63
2022/04/05 09:03:02;;;;;;;0.97;0.67;;;6.80;99.90;6.90;99311.00;;;;4821730;28;87681;-63
2022/04/05 09:05:33;;;;;;;0.77;0.77;;;6.90;99.90;7.10;99320.00;;;;4821110;29;87737;-63
2022/04/05 09:08:23;;;;;;;0.40;0.40;;;7.10;99.90;7.20;99321.00;;;;4828031;28;89103;-62
2022/04/05 09:11:12;;;;;;;3.40;0.80;;;7.30;99.90;7.40;99322.00;;;;4839369;28;88096;-62
2022/04/05 09:13:38;;;;;;;4.33;0.63;;;7.40;99.90;7.50;99318.00;;;;4839670;28;86919;-60
2022/04/05 09:16:05;;;;;;;1.07;0.60;;;7.90;99.90;7.60;99329.00;;;;4840216;28;87758;-61
2022/04/05 09:18:39;;;;;;;3.60;1.00;;;7.60;99.90;7.60;99333.00;;;;4838333;28;88595;-62
2022/04/05 09:21:08;;;;;;;3.80;1.10;;;7.60;99.90;7.70;99333.00;;;;4838927;28;88724;-61
2022/04/05 09:23:38;;;;;;;3.50;0.80;;;7.70;99.90;7.80;99330.00;;;;4842198;28;87797;-62
2022/04/05 09:26:10;;;;;;;0.60;0.60;;;7.80;99.90;7.90;99332.00;;;;4842778;28;87692;-62
2022/04/05 09:28:43;;;;;;;1.63;0.70;;;7.90;99.90;8.00;99322.00;;;;4842058;28;88547;-61
2022/04/05 09:31:13;;;;;;;2.40;0.57;;;8.10;99.90;8.10;99326.00;;;;4842053;28;97802;-61
2022/04/05 09:34:08;;;;;;;0.60;0.60;;;8.10;99.90;8.20;99328.00;;;;4842580;28;87795;-62
2022/04/05 09:36:41;;;;;;;3.20;0.87;;;8.20;99.90;8.30;99331.00;;;;4842879;28;88003;-62
2022/04/05 09:39:16;;;;;;;1.97;0.70;;;8.30;99.90;8.40;99334.00;;;;4841340;28;88522;-63
2022/04/05 09:41:46;;;;;;;2.87;0.60;;;8.40;99.90;8.40;99323.00;;;;4842168;28;87832;-62
2022/04/05 09:44:11;;;;;;;1.23;0.57;;;8.40;99.90;8.40;99335.00;;;;4841740;28;88903;-62
2022/04/05 09:46:40;;;;;;;2.60;0.83;;;8.80;99.90;8.50;99339.00;;;;4841587;28;88892;-61
2022/04/05 09:49:13;;;;;;;3.43;0.67;;;8.60;99.90;8.60;99335.00;;;;4842058;28;88406;-62
2022/04/05 09:51:44;;;;;;;1.10;0.50;;;8.60;99.90;8.70;99335.00;;;;4844329;28;87837;-61
2022/04/05 09:54:28;;;;;;;6.47;0.93;;;8.70;99.90;8.70;99342.00;;;;4850765;28;87704;-61
2022/04/05 09:57:06;;;;;;;4.17;0.80;;;8.70;99.90;8.60;99344.00;;;;4841740;28;101451;-62
2022/04/05 09:59:50;;;;;;;1.40;0.60;;;8.70;99.90;8.60;99345.00;;;;4842285;28;87845;-62
2022/04/05 10:02:18;;;;;;;0.80;0.60;;;8.70;99.90;8.60;99337.00;;;;4842802;28;87905;-61
2022/04/05 10:05:08;;;;;;;3.33;1.13;;;8.70;99.90;8.60;99344.00;;;;4824302;28;87212;-62
2022/04/05 10:07:35;;;;;;;1.30;0.57;;;8.70;99.90;8.70;99340.00;;;;4842417;28;87859;-63
2022/04/05 10:10:05;;;;;;;2.83;0.83;;;8.70;99.90;8.70;99341.00;;;;4841421;28;89092;-62
2022/04/05 10:12:31;;;;;;;0.80;0.73;;;8.70;99.90;8.80;99327.00;;;;4840984;28;109017;-63
2022/04/05 10:14:59;;;;;;;1.70;0.80;;;8.80;99.90;8.90;99323.00;;;;4842057;28;87825;-61
2022/04/05 10:17:27;;;;;;;1.70;0.60;;;8.90;99.90;9.00;99332.00;;;;4841941;28;87763;-61
2022/04/05 10:19:56;;;;;;;0.73;0.63;;;9.00;99.90;9.10;99342.00;;;;4841420;28;95344;-61
2022/04/05 10:22:22;;;;;;;2.47;0.50;;;9.10;99.90;9.10;99339.00;;;;4841666;28;102038;-61
2022/04/05 10:24:53;;;;;;;1.47;0.50;;;9.20;99.90;9.10;99332.00;;;;4841642;28;87931;-61
2022/04/05 10:27:21;;;;;;;2.60;1.17;;;9.20;99.90;9.10;99335.00;;;;4841610;28;87995;-62
2022/04/05 10:29:59;;;;;;;1.80;0.83;;;9.20;99.90;9.10;99335.00;;;;4841827;28;87035;-62
2022/04/05 10:32:41;;;;;;;0.90;0.57;;;9.20;99.90;9.00;99333.00;;;;4840846;28;104095;-62
2022/04/05 10:35:11;;;;;;;0.93;0.67;;;9.10;99.90;9.00;99345.00;;;;4824109;28;101323;-61
2022/04/05 10:37:38;;;;;;;1.70;0.20;;;9.10;99.90;9.00;99344.00;;;;4841464;28;89028;-62
2022/04/05 10:40:10;;;;;;;0.40;0.40;;;9.10;99.90;9.10;99342.00;;;;4841067;28;87888;-63
2022/04/05 10:42:46;;;;;;;0.93;0.63;;;9.30;99.90;9.10;99345.00;;;;4840991;28;88891;-59
2022/04/05 10:45:18;;;;;;;1.07;0.73;;;9.20;99.90;9.10;99342.00;;;;4841413;28;87910;-62
2022/04/05 10:48:12;;;;;;;0.60;0.40;;;9.20;99.90;9.10;99345.00;;;;4841985;28;87780;-60
2022/04/05 10:50:42;;;;;;;0.80;0.60;;;9.20;99.90;9.20;99347.00;;;;4841767;28;87632;-61
2022/04/05 10:53:22;;;;;;;1.47;0.37;;;9.20;99.90;9.20;99348.00;;;;4849682;28;88448;-60
2022/04/05 10:56:03;;;;;;;0.50;0.50;;;9.20;99.90;9.30;99345.00;;;;4841256;28;90522;-61
2022/04/05 10:58:33;;;;;;;0.67;0.50;;;9.30;99.90;9.30;99342.00;;;;4840707;28;87754;-61
2022/04/05 11:01:15;;;;;;;0.70;0.50;;;9.30;99.90;9.20;99346.00;;;;4840733;28;88494;-62
2022/04/05 11:03:40;;;;;;;0.93;0.63;;;9.30;99.90;9.20;99348.00;;;;4840044;28;88718;-61
2022/04/05 11:06:07;;;;;;;0.73;0.70;;;9.30;99.90;9.20;99341.00;;;;4840934;28;95123;-61
2022/04/05 11:08:33;;;;;;;1.37;0.80;;;9.40;99.90;9.20;99337.00;;;;4840443;28;87565;-61
2022/04/05 11:11:05;;;;;;;3.47;0.50;;;9.20;99.90;9.10;99354.00;;;;4841232;28;92687;-61